Kaliningrad, Russia
Current Conditions -  °F | °C
As of 9:00 AM on Saturday 20 Dec 2014 (Local Time) from UMKK Reporting Station
Broken Clouds Broken Clouds  
Wind Chill: 31°   Ceiling: 6600
Heat Index: 41°   Visibility: 6mi
Dew Point: 34°   Wind: 22mph
Humidity: 76%   Direction: 250°WSW
Pressure: 29.53"   Gusts: NA
Location:  54.71°N, 20.5°E
Report Text: UMKK 200700Z 25010MPS 9999 SCT023 BKN066 05/01 Q1000 R24/29//55NOSIG RMK QFE749/0999
Loading
Personal Weather Stations






























Interactive Weather Map New forecast layout! Learn more

10-Day Weather Forecast

Advertisements
Track Severe Weather on mobile